createdAt,value
2019-02-11T05:28:43.794Z,-83
2019-02-11T05:31:36.282Z,-83
2019-02-11T05:34:28.347Z,-83
2019-02-11T05:52:16.287Z,-83
2019-02-11T06:30:49.390Z,-84
2019-02-11T06:33:21.318Z,-84
2019-02-11T06:35:54.604Z,-84
2019-02-11T06:38:26.491Z,-84
2019-02-11T06:40:58.484Z,-84
2019-02-11T06:43:32.542Z,-85
2019-02-11T06:46:04.376Z,-82
2019-02-11T06:48:36.247Z,-82
2019-02-11T06:51:08.076Z,-82
2019-02-11T06:53:39.970Z,-83
2019-02-11T06:56:11.832Z,-83
2019-02-11T06:58:43.715Z,-82
2019-02-11T07:01:15.684Z,-83
2019-02-11T07:03:47.659Z,-82
2019-02-11T07:06:19.496Z,-82
2019-02-11T07:08:51.379Z,-81
2019-02-11T07:11:23.218Z,-83
2019-02-11T07:13:55.115Z,-82
2019-02-11T07:16:26.946Z,-83
2019-02-11T07:18:58.840Z,-83
2019-02-11T07:21:30.708Z,-83
2019-02-11T07:24:02.587Z,-80
2019-02-11T07:26:34.430Z,-82
2019-02-11T07:29:06.459Z,-83
2019-02-11T07:31:38.411Z,-82
2019-02-11T07:34:10.323Z,-82
2019-02-11T07:36:42.250Z,-83
2019-02-11T07:39:14.098Z,-82
2019-02-11T07:42:04.743Z,-82
2019-02-11T07:44:49.980Z,-82
2019-02-11T07:47:22.006Z,-82
2019-02-11T07:49:53.848Z,-82
2019-02-11T07:52:27.159Z,-82
2019-02-11T07:54:59.252Z,-83
2019-02-11T07:57:31.211Z,-82
2019-02-11T08:00:03.632Z,-83
2019-02-11T08:02:35.564Z,-82
2019-02-11T08:05:07.431Z,-82
2019-02-11T08:07:39.374Z,-82
2019-02-11T08:10:11.211Z,-82
2019-02-11T08:12:43.078Z,-82
2019-02-11T08:15:14.914Z,-82
2019-02-11T08:17:47.100Z,-83
2019-02-11T08:20:19.266Z,-83
2019-02-11T08:22:51.527Z,-83
2019-02-11T08:25:24.800Z,-81
2019-02-11T08:27:56.702Z,-83
2019-02-11T08:30:29.180Z,-83
2019-02-11T08:33:01.414Z,-83
2019-02-11T08:35:33.310Z,-83
2019-02-11T08:38:05.256Z,-83
2019-02-11T08:40:37.140Z,-81
2019-02-11T08:43:09.094Z,-81
2019-02-11T08:45:46.874Z,-80
2019-02-11T08:48:15.283Z,-81
2019-02-11T08:50:47.585Z,-81
2019-02-11T08:53:19.857Z,-80
2019-02-11T08:55:51.762Z,-81
2019-02-11T08:58:23.695Z,-82
2019-02-11T09:00:55.552Z,-81
2019-02-11T09:03:27.446Z,-80
2019-02-11T09:05:59.279Z,-81
2019-02-11T09:08:31.160Z,-81
2019-02-11T09:11:03.006Z,-81
2019-02-11T09:13:34.908Z,-81
2019-02-11T09:16:06.866Z,-81
2019-02-11T09:18:38.757Z,-81
2019-02-11T09:21:10.648Z,-81
2019-02-11T09:23:42.592Z,-81
2019-02-11T09:26:14.467Z,-81
2019-02-11T09:28:46.427Z,-82
2019-02-11T09:31:18.283Z,-81
2019-02-11T09:33:50.192Z,-81
2019-02-11T09:36:22.197Z,-82
2019-02-11T09:38:54.229Z,-82
2019-02-11T09:41:26.278Z,-82
2019-02-11T09:43:58.119Z,-82
2019-02-11T09:46:30.052Z,-82
2019-02-11T09:49:01.899Z,-82
2019-02-11T09:51:37.353Z,-82
2019-02-11T09:54:09.533Z,-82
2019-02-11T09:56:41.783Z,-82
2019-02-11T09:59:13.629Z,-82
2019-02-11T10:01:45.501Z,-82
2019-02-11T10:04:17.376Z,-79
2019-02-11T10:06:49.263Z,-79
2019-02-11T10:09:21.093Z,-79
2019-02-11T10:11:52.999Z,-79
2019-02-11T10:14:24.824Z,-79
2019-02-11T10:16:56.722Z,-79
2019-02-11T10:19:28.550Z,-79
2019-02-11T10:22:00.447Z,-79
2019-02-11T10:24:32.287Z,-80
2019-02-11T10:27:04.178Z,-80
2019-02-11T10:29:36.016Z,-79
2019-02-11T10:32:07.892Z,-79
2019-02-11T10:34:39.722Z,-79
2019-02-11T10:37:11.696Z,-79
2019-02-11T10:39:43.575Z,-79
2019-02-11T10:42:15.476Z,-79
2019-02-11T10:44:47.329Z,-79
2019-02-11T10:47:19.238Z,-80
2019-02-11T10:49:51.069Z,-80
2019-02-11T10:52:22.995Z,-79
2019-02-11T10:54:54.944Z,-79
2019-02-11T10:57:26.851Z,-79
2019-02-11T10:59:58.849Z,-79
2019-02-11T11:02:30.727Z,-79
2019-02-11T11:05:02.589Z,-79
2019-02-11T11:07:34.568Z,-81
2019-02-11T11:10:13.471Z,-79
2019-02-11T11:12:45.368Z,-79
2019-02-11T11:15:17.214Z,-81
2019-02-11T11:17:49.176Z,-82
2019-02-11T11:20:21.014Z,-81
2019-02-11T11:22:53.080Z,-81
2019-02-11T11:25:24.925Z,-81
2019-02-11T11:27:56.825Z,-81
2019-02-11T11:30:28.704Z,-81
2019-02-11T11:33:01.138Z,-81
2019-02-11T11:35:32.987Z,-81
2019-02-11T11:38:04.891Z,-82
2019-02-11T11:40:36.757Z,-81
2019-02-11T11:43:08.684Z,-82
2019-02-11T11:45:40.521Z,-81
2019-02-11T11:48:12.410Z,-81
2019-02-11T11:50:44.323Z,-81
2019-02-11T11:53:16.671Z,-82
2019-02-11T11:55:48.509Z,-82
2019-02-11T11:58:20.429Z,-82
2019-02-11T12:00:52.322Z,-82
2019-02-11T12:03:24.212Z,-82
2019-02-11T12:05:56.135Z,-84
2019-02-11T12:08:28.030Z,-82
2019-02-11T12:10:59.923Z,-83
2019-02-11T12:13:31.831Z,-82
2019-02-11T12:16:03.688Z,-84
2019-02-11T12:18:36.144Z,-84
2019-02-11T12:21:07.992Z,-82
2019-02-11T12:23:39.884Z,-81
2019-02-11T12:26:11.723Z,-82
2019-02-11T12:28:43.759Z,-82
2019-02-11T12:31:15.596Z,-82
2019-02-11T12:33:47.519Z,-82
2019-02-11T12:36:19.532Z,-82
2019-02-11T12:38:51.484Z,-83
2019-02-11T12:41:23.371Z,-82
2019-02-11T12:43:55.339Z,-81
2019-02-11T12:46:27.169Z,-82
2019-02-11T12:49:01.768Z,-83
2019-02-11T12:51:32.656Z,-83
2019-02-11T12:54:04.569Z,-82
2019-02-11T12:56:36.386Z,-84
2019-02-11T12:59:08.301Z,-82
2019-02-11T13:01:40.153Z,-82
2019-02-11T13:04:12.073Z,-83
2019-02-11T13:06:43.899Z,-83
2019-02-11T13:09:15.838Z,-83
2019-02-11T13:11:47.710Z,-82
2019-02-11T13:14:20.242Z,-84
2019-02-11T13:16:52.411Z,-84
2019-02-11T13:19:24.359Z,-83
2019-02-11T13:21:56.233Z,-82
2019-02-11T13:24:28.085Z,-82
2019-02-11T13:26:59.971Z,-82
2019-02-11T13:29:31.817Z,-83
2019-02-11T13:32:03.725Z,-83
2019-02-11T13:34:35.574Z,-84
2019-02-11T13:37:07.950Z,-84
2019-02-11T13:39:39.939Z,-84
2019-02-11T13:42:11.855Z,-84
2019-02-11T13:44:43.711Z,-84
2019-02-11T13:47:15.723Z,-83
2019-02-11T13:49:47.607Z,-84
2019-02-11T13:52:19.508Z,-85
2019-02-11T13:54:51.361Z,-83
2019-02-11T13:57:23.372Z,-85
2019-02-11T13:59:55.220Z,-85
2019-02-11T14:02:27.147Z,-84
2019-02-11T14:04:59.037Z,-84
2019-02-11T14:07:31.210Z,-82
2019-02-11T14:10:03.171Z,-82
2019-02-11T14:12:35.316Z,-82
2019-02-11T14:15:07.463Z,-81
2019-02-11T14:17:40.708Z,-82
2019-02-11T14:20:19.353Z,-82
2019-02-11T14:22:51.854Z,-82
2019-02-11T14:25:41.146Z,-83
2019-02-11T14:27:58.044Z,-81
2019-02-11T14:30:29.949Z,-82
2019-02-11T14:33:01.858Z,-84
2019-02-11T14:35:33.816Z,-84
2019-02-11T14:38:05.784Z,-83
2019-02-11T14:40:37.887Z,-85
2019-02-11T14:43:09.713Z,-84
2019-02-11T14:45:41.698Z,-85
2019-02-11T14:48:26.927Z,-84
2019-02-11T14:50:47.202Z,-84
2019-02-11T14:53:19.041Z,-83
2019-02-11T14:55:50.917Z,-83
2019-02-11T14:58:22.772Z,-83
2019-02-11T15:00:54.716Z,-84
2019-02-11T15:03:26.578Z,-83
2019-02-11T15:05:58.491Z,-83
2019-02-11T15:08:30.350Z,-82
2019-02-11T15:11:02.246Z,-85
2019-02-11T15:13:34.138Z,-82
2019-02-11T15:16:06.101Z,-82
2019-02-11T15:18:37.997Z,-82
2019-02-11T15:21:09.838Z,-82
2019-02-11T15:23:41.736Z,-81
2019-02-11T15:26:13.625Z,-83
2019-02-11T15:28:45.540Z,-82
2019-02-11T15:31:17.377Z,-83
2019-02-11T15:33:49.351Z,-83
2019-02-11T15:36:21.263Z,-81
2019-02-11T15:38:53.236Z,-83
2019-02-11T15:41:25.095Z,-83
2019-02-11T15:43:57.004Z,-85
2019-02-11T15:46:28.842Z,-85
2019-02-11T15:49:00.803Z,-85
2019-02-11T15:51:32.656Z,-85
2019-02-11T15:54:05.043Z,-85
2019-02-11T15:56:36.896Z,-85
2019-02-11T15:59:09.224Z,-86
2019-02-11T16:01:41.170Z,-85
2019-02-11T16:04:13.073Z,-85
2019-02-11T16:06:45.007Z,-85
2019-02-11T16:09:16.906Z,-86
2019-02-11T16:11:48.871Z,-85
2019-02-11T16:14:20.758Z,-85
2019-02-11T16:16:52.599Z,-86
2019-02-11T16:19:24.849Z,-86
2019-02-11T16:21:56.688Z,-85
2019-02-11T16:24:28.991Z,-84
2019-02-11T16:27:00.867Z,-86
2019-02-11T16:29:32.760Z,-86
2019-02-11T16:32:04.620Z,-86
2019-02-11T16:34:36.597Z,-86
2019-02-11T16:37:08.682Z,-85
2019-02-11T16:39:40.777Z,-84
2019-02-11T16:42:13.794Z,-83
2019-02-11T16:44:45.732Z,-83
2019-02-11T16:47:17.616Z,-83
2019-02-11T16:49:49.516Z,-84
2019-02-11T16:52:21.394Z,-83
2019-02-11T16:54:53.272Z,-85
2019-02-11T16:57:25.159Z,-84
2019-02-11T16:59:57.024Z,-85
2019-02-11T17:02:28.947Z,-84
2019-02-11T17:05:00.811Z,-84
2019-02-11T17:07:41.360Z,-83
2019-02-11T17:10:11.160Z,-83
2019-02-11T17:12:44.410Z,-83
2019-02-11T17:15:17.707Z,-84
2019-02-11T17:17:49.606Z,-83
2019-02-11T17:20:21.461Z,-82
2019-02-11T17:22:53.386Z,-81
2019-02-11T17:25:25.244Z,-82
2019-02-11T17:27:57.137Z,-82
2019-02-11T17:30:29.218Z,-82
2019-02-11T17:33:01.132Z,-82
2019-02-11T17:35:33.007Z,-82
2019-02-11T17:38:04.904Z,-83
2019-02-11T17:40:36.777Z,-81
2019-02-11T17:43:08.662Z,-82
2019-02-11T17:45:40.531Z,-84
2019-02-11T17:48:12.428Z,-82
2019-02-11T17:50:44.302Z,-82
2019-02-11T17:53:16.368Z,-82
2019-02-11T17:55:48.911Z,-82
2019-02-11T17:58:20.803Z,-82
2019-02-11T18:00:57.096Z,-83
2019-02-11T18:03:28.979Z,-83
2019-02-11T18:06:00.840Z,-83
2019-02-11T18:08:32.729Z,-83
2019-02-11T18:11:04.658Z,-82
2019-02-11T18:13:36.564Z,-82
2019-02-11T18:16:08.664Z,-84
2019-02-11T18:18:40.561Z,-83
2019-02-11T18:21:12.431Z,-82
2019-02-11T18:23:44.309Z,-82
2019-02-11T18:26:16.148Z,-83
2019-02-11T18:28:48.041Z,-82
2019-02-11T18:31:19.889Z,-82
2019-02-11T18:33:51.755Z,-82
2019-02-11T18:36:23.599Z,-82
2019-02-11T18:38:55.469Z,-83
2019-02-11T18:41:27.347Z,-83
2019-02-11T18:43:59.226Z,-82
2019-02-11T18:46:31.068Z,-82
2019-02-11T18:49:02.967Z,-84
2019-02-11T18:51:34.804Z,-81
2019-02-11T18:54:06.996Z,-81
2019-02-11T18:56:38.835Z,-81
2019-02-11T18:59:10.745Z,-82
2019-02-11T19:01:42.595Z,-82
2019-02-11T19:04:15.664Z,-82
2019-02-11T19:06:47.604Z,-82
2019-02-11T19:09:20.557Z,-82
2019-02-11T19:11:52.403Z,-81
2019-02-11T19:14:24.306Z,-82
2019-02-11T19:16:56.143Z,-82
2019-02-11T19:19:28.048Z,-82
2019-02-11T19:21:59.889Z,-81
2019-02-11T19:24:31.775Z,-83
2019-02-11T19:27:03.637Z,-81
2019-02-11T19:29:35.525Z,-81
2019-02-11T19:32:07.448Z,-82
2019-02-11T19:34:39.352Z,-82
2019-02-11T19:37:11.237Z,-82
2019-02-11T19:39:43.259Z,-81
2019-02-11T19:42:15.126Z,-82
2019-02-11T19:44:47.062Z,-81
2019-02-11T19:47:18.989Z,-83
2019-02-11T19:49:52.080Z,-82
2019-02-11T19:52:24.191Z,-83
2019-02-11T19:54:56.607Z,-85
2019-02-11T19:57:28.447Z,-82
2019-02-11T20:00:00.423Z,-82
2019-02-11T20:02:32.266Z,-82
2019-02-11T20:05:04.266Z,-82
2019-02-11T20:07:37.080Z,-82
2019-02-11T20:10:10.956Z,-82
2019-02-11T20:12:42.807Z,-83
2019-02-11T20:15:18.390Z,-82
2019-02-11T20:17:50.281Z,-83
2019-02-11T20:20:23.155Z,-82
2019-02-11T20:22:54.999Z,-81
2019-02-11T20:25:26.838Z,-80
2019-02-11T20:27:58.669Z,-80
2019-02-11T20:30:30.565Z,-80
2019-02-11T20:33:02.469Z,-81
2019-02-11T20:35:34.347Z,-83
2019-02-11T20:38:06.877Z,-82
2019-02-11T20:40:38.753Z,-81
2019-02-11T20:43:10.598Z,-81
2019-02-11T20:45:42.476Z,-81
2019-02-11T20:48:18.295Z,-81
2019-02-11T20:50:50.099Z,-81
2019-02-11T20:53:21.938Z,-81
2019-02-11T20:55:54.451Z,-81
2019-02-11T20:58:26.471Z,-84
2019-02-11T21:00:58.319Z,-81
2019-02-11T21:03:30.158Z,-81
2019-02-11T21:06:02.070Z,-80
2019-02-11T21:08:33.923Z,-80
2019-02-11T21:11:05.768Z,-81
2019-02-11T21:13:37.606Z,-81
2019-02-11T21:16:09.481Z,-81
2019-02-11T21:18:41.334Z,-81
2019-02-11T21:21:13.248Z,-81
2019-02-11T21:23:45.106Z,-81
2019-02-11T21:26:16.950Z,-81
2019-02-11T21:28:49.648Z,-81
2019-02-11T21:31:21.502Z,-81
2019-02-11T21:33:53.390Z,-80
2019-02-11T21:36:25.333Z,-80
2019-02-11T21:38:57.192Z,-80
2019-02-11T21:41:29.754Z,-80
2019-02-11T21:44:02.976Z,-80
2019-02-11T21:46:36.801Z,-80
2019-02-11T21:49:09.861Z,-80
2019-02-11T21:51:42.124Z,-80
2019-02-11T21:54:13.962Z,-80
2019-02-11T21:56:46.482Z,-80
2019-02-11T21:59:18.386Z,-80
2019-02-11T22:01:50.382Z,-80
2019-02-11T22:04:22.234Z,-80
2019-02-11T22:06:54.080Z,-80
2019-02-11T22:09:25.946Z,-80
2019-02-11T22:11:58.448Z,-80
2019-02-11T22:14:30.425Z,-81
2019-02-11T22:17:02.295Z,-82
2019-02-11T22:19:34.201Z,-82
2019-02-11T22:22:06.043Z,-82
2019-02-11T22:24:37.965Z,-82
2019-02-11T22:27:11.073Z,-82
2019-02-11T22:29:42.914Z,-82
2019-02-11T22:32:14.763Z,-82
2019-02-11T22:34:46.736Z,-81
2019-02-11T22:37:18.767Z,-82
2019-02-11T22:39:51.510Z,-82
2019-02-11T22:42:38.452Z,-82
2019-02-11T22:45:17.297Z,-82
2019-02-11T22:48:04.202Z,-83
2019-02-11T22:50:43.525Z,-82
2019-02-11T22:53:18.485Z,-81
2019-02-11T22:55:50.646Z,-82
2019-02-11T22:58:46.201Z,-82
2019-02-11T23:01:22.768Z,-82
2019-02-11T23:04:01.615Z,-82
2019-02-11T23:06:36.109Z,-82
2019-02-11T23:09:25.351Z,-82
2019-02-11T23:12:04.176Z,-82
2019-02-11T23:14:43.762Z,-82
2019-02-11T23:17:19.460Z,-81
2019-02-11T23:19:59.328Z,-80
2019-02-11T23:22:55.502Z,-81
2019-02-11T23:26:02.996Z,-82
2019-02-11T23:28:41.568Z,-81
2019-02-11T23:31:22.243Z,-81
2019-02-11T23:33:57.797Z,-81
2019-02-11T23:36:34.467Z,-82
2019-02-11T23:39:28.415Z,-82
2019-02-11T23:42:24.969Z,-82
2019-02-11T23:45:08.620Z,-81
2019-02-11T23:47:52.277Z,-82
2019-02-11T23:50:25.651Z,-81
2019-02-11T23:53:46.700Z,-81
2019-02-11T23:56:34.747Z,-81
2019-02-11T23:59:23.835Z,-82
